Time;durP1;ratioP1;P1;durP2;ratioP2;P2;SDS_P1;SDS_P2;PMS_P1;PMS_P2;Temp;Humidity;BMP_temperature;BMP_pressure;BME280_temperature;BME280_humidity;BME280_pressure;Samples;Min_cycle;Max_cycle;Signal;HPM_P1;HPM_P2
2023/01/02 00:00:19;;;;;;;652.77;271.43;;;;;;;;;;4984463;28;20232;-53
2023/01/02 00:02:45;;;;;;;596.60;239.53;;;;;;;;;;4987916;28;20458;-53
2023/01/02 00:05:12;;;;;;;652.03;272.27;;;;;;;;;;4981784;28;20228;-53
2023/01/02 00:07:38;;;;;;;729.87;303.93;;;;;;;;;;4986830;28;20200;-53
2023/01/02 00:10:04;;;;;;;659.60;285.00;;;;;;;;;;4972906;28;20561;-56
2023/01/02 00:12:30;;;;;;;676.00;294.23;;;;;;;;;;4975966;28;20223;-53
2023/01/02 00:14:56;;;;;;;587.43;243.10;;;;;;;;;;4991112;28;21716;-54
2023/01/02 00:17:22;;;;;;;689.10;291.60;;;;;;;;;;4990516;28;20232;-54
2023/01/02 00:19:48;;;;;;;612.13;259.50;;;;;;;;;;5000406;28;20678;-53
2023/01/02 00:22:17;;;;;;;656.23;279.83;;;;;;;;;;4990650;28;20267;-53
2023/01/02 00:24:43;;;;;;;526.27;220.27;;;;;;;;;;4992737;28;20234;-53
2023/01/02 00:27:09;;;;;;;619.60;251.87;;;;;;;;;;4995591;28;20208;-53
2023/01/02 00:29:35;;;;;;;591.17;236.07;;;;;;;;;;4996744;28;20691;-53
2023/01/02 00:32:01;;;;;;;587.03;251.60;;;;;;;;;;5001393;28;20216;-53
2023/01/02 00:34:27;;;;;;;609.73;250.00;;;;;;;;;;4999227;28;20486;-53
2023/01/02 00:36:53;;;;;;;647.70;265.23;;;;;;;;;;4988806;28;20239;-52
2023/01/02 00:39:19;;;;;;;669.13;277.53;;;;;;;;;;4986817;28;20401;-53
2023/01/02 00:41:45;;;;;;;612.37;252.20;;;;;;;;;;4979052;28;20216;-53
2023/01/02 00:44:14;;;;;;;615.70;260.03;;;;;;;;;;4980976;28;20275;-53
2023/01/02 00:46:40;;;;;;;658.20;266.00;;;;;;;;;;4986207;28;20405;-53
2023/01/02 00:49:06;;;;;;;624.17;261.70;;;;;;;;;;4982018;28;20306;-53
2023/01/02 00:51:32;;;;;;;667.03;268.50;;;;;;;;;;4981743;28;20511;-53
2023/01/02 00:53:58;;;;;;;659.07;272.57;;;;;;;;;;4989687;28;20714;-54
2023/01/02 00:56:24;;;;;;;574.07;231.27;;;;;;;;;;4985043;28;20642;-53
2023/01/02 00:58:50;;;;;;;681.20;281.30;;;;;;;;;;4975539;28;20177;-54
2023/01/02 01:01:16;;;;;;;569.13;232.90;;;;;;;;;;4982498;28;20665;-53
2023/01/02 01:03:42;;;;;;;629.17;264.63;;;;;;;;;;4982316;28;20231;-53
2023/01/02 01:06:09;;;;;;;691.73;278.40;;;;;;;;;;4978562;28;20322;-54
2023/01/02 01:08:36;;;;;;;692.83;294.40;;;;;;;;;;4968281;28;20216;-53
2023/01/02 01:11:11;;;;;;;661.47;268.77;;;;;;;;;;4981468;28;20220;-53
2023/01/02 01:13:38;;;;;;;681.83;270.07;;;;;;;;;;4976855;28;20381;-53
2023/01/02 01:16:08;;;;;;;710.27;300.50;;;;;;;;;;4976926;28;20628;-53
2023/01/02 01:18:38;;;;;;;641.37;257.03;;;;;;;;;;4987589;28;20212;-53
2023/01/02 01:21:07;;;;;;;646.00;266.43;;;;;;;;;;4967194;28;20220;-54
2023/01/02 01:23:33;;;;;;;645.53;270.30;;;;;;;;;;4993916;28;20213;-53
2023/01/02 01:26:03;;;;;;;661.43;261.30;;;;;;;;;;4991294;28;21784;-53
2023/01/02 01:28:29;;;;;;;617.47;254.50;;;;;;;;;;4986183;28;20191;-53
2023/01/02 01:30:55;;;;;;;573.80;236.87;;;;;;;;;;4986284;28;20265;-54
2023/01/02 01:33:20;;;;;;;631.20;260.07;;;;;;;;;;4989167;28;23152;-53
2023/01/02 01:35:47;;;;;;;595.87;237.10;;;;;;;;;;4990971;28;20335;-53
2023/01/02 01:38:13;;;;;;;628.53;259.53;;;;;;;;;;4986669;28;20231;-53
2023/01/02 01:40:41;;;;;;;579.07;235.53;;;;;;;;;;4982033;28;20768;-53
2023/01/02 01:43:16;;;;;;;644.10;264.80;;;;;;;;;;4984582;28;21426;-53
2023/01/02 01:45:43;;;;;;;726.07;296.97;;;;;;;;;;4980542;28;20305;-53
2023/01/02 01:48:13;;;;;;;653.63;272.33;;;;;;;;;;4986769;28;20228;-54
2023/01/02 01:50:39;;;;;;;643.70;269.90;;;;;;;;;;4986399;28;20281;-53
2023/01/02 01:53:13;;;;;;;695.03;279.77;;;;;;;;;;4981590;28;23132;-53
2023/01/02 01:55:48;;;;;;;604.50;235.37;;;;;;;;;;4984739;28;20188;-54
2023/01/02 01:58:17;;;;;;;711.43;295.93;;;;;;;;;;4983560;28;20362;-53
2023/01/02 02:00:44;;;;;;;700.63;279.23;;;;;;;;;;4967857;28;20232;-53
2023/01/02 02:03:16;;;;;;;709.13;295.23;;;;;;;;;;4988356;28;20248;-53
2023/01/02 02:05:43;;;;;;;707.67;291.97;;;;;;;;;;4980497;28;20631;-54
2023/01/02 02:08:09;;;;;;;694.13;282.77;;;;;;;;;;4976533;28;20563;-53
2023/01/02 02:10:36;;;;;;;652.47;264.37;;;;;;;;;;4975623;28;20330;-53
2023/01/02 02:13:02;;;;;;;543.13;220.13;;;;;;;;;;4988182;28;20204;-54
2023/01/02 02:15:35;;;;;;;598.63;252.40;;;;;;;;;;4971531;28;20677;-53
2023/01/02 02:18:07;;;;;;;631.27;251.17;;;;;;;;;;4982748;28;20208;-53
2023/01/02 02:20:42;;;;;;;679.10;272.87;;;;;;;;;;4981012;28;20222;-53
2023/01/02 02:23:36;;;;;;;651.83;264.10;;;;;;;;;;4984030;28;20309;-54
2023/01/02 02:26:23;;;;;;;576.23;230.00;;;;;;;;;;4993654;28;20231;-53
2023/01/02 02:29:13;;;;;;;647.50;267.33;;;;;;;;;;4986837;28;20342;-53
2023/01/02 02:31:41;;;;;;;604.60;237.93;;;;;;;;;;4977307;28;20473;-53
2023/01/02 02:34:34;;;;;;;571.33;235.33;;;;;;;;;;4990760;28;20247;-54
2023/01/02 02:37:14;;;;;;;657.83;264.83;;;;;;;;;;4981098;28;20208;-54
2023/01/02 02:39:51;;;;;;;680.57;274.93;;;;;;;;;;4988150;28;20430;-54
2023/01/02 02:42:25;;;;;;;609.70;248.70;;;;;;;;;;4980877;28;20227;-53
2023/01/02 02:45:11;;;;;;;609.73;242.50;;;;;;;;;;4978242;28;20457;-53
2023/01/02 02:47:56;;;;;;;599.87;241.83;;;;;;;;;;4973789;28;20220;-53
2023/01/02 02:50:41;;;;;;;686.30;282.40;;;;;;;;;;4988531;28;20786;-54
2023/01/02 02:53:13;;;;;;;561.20;224.10;;;;;;;;;;4988387;28;20659;-54
2023/01/02 02:55:49;;;;;;;591.53;239.87;;;;;;;;;;4977255;28;20188;-54
2023/01/02 02:58:16;;;;;;;756.10;316.00;;;;;;;;;;4980584;28;20379;-53
2023/01/02 03:00:42;;;;;;;559.90;221.53;;;;;;;;;;4978421;28;20319;-53
2023/01/02 03:03:17;;;;;;;672.67;276.77;;;;;;;;;;4980541;28;20224;-53
2023/01/02 03:05:47;;;;;;;631.33;264.67;;;;;;;;;;4970087;28;20504;-53
2023/01/02 03:08:21;;;;;;;633.33;256.30;;;;;;;;;;4974645;28;20274;-53
2023/01/02 03:10:57;;;;;;;560.37;230.73;;;;;;;;;;4985603;28;20274;-53
2023/01/02 03:13:26;;;;;;;668.17;271.63;;;;;;;;;;4982646;28;20373;-53
2023/01/02 03:16:12;;;;;;;602.37;236.93;;;;;;;;;;4991696;28;20681;-53
2023/01/02 03:18:44;;;;;;;564.17;219.07;;;;;;;;;;4980320;28;20254;-54
2023/01/02 03:21:12;;;;;;;741.90;310.40;;;;;;;;;;4975915;28;20305;-54
2023/01/02 03:23:42;;;;;;;641.30;268.60;;;;;;;;;;4986313;28;20301;-53
2023/01/02 03:26:09;;;;;;;607.83;250.83;;;;;;;;;;4984979;28;20224;-54
2023/01/02 03:28:37;;;;;;;640.57;266.23;;;;;;;;;;4980475;28;20208;-53
2023/01/02 03:31:04;;;;;;;610.57;243.53;;;;;;;;;;4980459;28;20227;-53
2023/01/02 03:33:32;;;;;;;621.77;266.17;;;;;;;;;;4978599;28;20224;-53
2023/01/02 03:36:04;;;;;;;705.03;304.90;;;;;;;;;;4984060;28;20220;-53
2023/01/02 03:38:33;;;;;;;633.07;270.47;;;;;;;;;;4992449;28;20615;-54
2023/01/02 03:41:07;;;;;;;594.70;231.37;;;;;;;;;;4986618;28;20478;-53
2023/01/02 03:43:34;;;;;;;630.83;272.47;;;;;;;;;;4987668;28;20661;-53
2023/01/02 03:46:10;;;;;;;607.47;249.97;;;;;;;;;;4980970;28;20238;-54
2023/01/02 03:48:45;;;;;;;656.67;269.13;;;;;;;;;;4985841;28;20258;-54
2023/01/02 03:51:11;;;;;;;629.37;264.40;;;;;;;;;;4977006;28;20819;-53
2023/01/02 03:53:39;;;;;;;673.90;272.10;;;;;;;;;;4983186;28;20715;-53
2023/01/02 03:56:24;;;;;;;691.07;290.30;;;;;;;;;;4986820;28;20274;-53
2023/01/02 03:58:59;;;;;;;610.67;242.57;;;;;;;;;;4985176;28;20620;-54
2023/01/02 04:01:40;;;;;;;664.33;268.50;;;;;;;;;;4975076;28;20266;-53
2023/01/02 04:04:09;;;;;;;661.03;272.90;;;;;;;;;;4983047;28;20220;-53
2023/01/02 04:06:37;;;;;;;567.87;235.43;;;;;;;;;;4991065;28;20625;-54
2023/01/02 04:09:11;;;;;;;638.97;256.00;;;;;;;;;;4994544;28;20213;-54
2023/01/02 04:11:39;;;;;;;663.23;268.37;;;;;;;;;;4979751;28;20415;-53
2023/01/02 04:14:14;;;;;;;596.97;242.20;;;;;;;;;;4998907;28;20217;-53
2023/01/02 04:16:41;;;;;;;694.47;278.27;;;;;;;;;;4988713;28;20177;-53
2023/01/02 04:19:14;;;;;;;590.03;231.03;;;;;;;;;;4982982;28;20310;-54
2023/01/02 04:21:40;;;;;;;671.40;272.17;;;;;;;;;;4983638;28;20220;-53
2023/01/02 04:24:14;;;;;;;677.07;277.60;;;;;;;;;;4989301;28;20645;-53
2023/01/02 04:26:46;;;;;;;601.87;246.17;;;;;;;;;;4985476;28;20661;-53
2023/01/02 04:29:12;;;;;;;611.77;244.87;;;;;;;;;;4979214;28;20256;-53
2023/01/02 04:31:44;;;;;;;622.80;247.00;;;;;;;;;;4992872;28;20204;-54
2023/01/02 04:34:14;;;;;;;702.30;296.73;;;;;;;;;;4981183;28;20298;-54
2023/01/02 04:36:41;;;;;;;658.77;263.90;;;;;;;;;;4994868;28;20204;-53
2023/01/02 04:39:07;;;;;;;658.37;265.57;;;;;;;;;;4983500;28;20743;-53
2023/01/02 04:41:33;;;;;;;544.53;220.77;;;;;;;;;;4986763;28;20224;-53
2023/01/02 04:44:00;;;;;;;684.20;283.03;;;;;;;;;;4975099;28;20565;-53
2023/01/02 04:46:27;;;;;;;685.23;288.33;;;;;;;;;;4985818;28;20679;-53
2023/01/02 04:48:54;;;;;;;634.87;260.87;;;;;;;;;;4982969;28;20960;-53
2023/01/02 04:51:21;;;;;;;646.30;265.57;;;;;;;;;;4980119;28;20996;-53
2023/01/02 04:53:47;;;;;;;644.73;262.33;;;;;;;;;;4982733;28;20253;-53
2023/01/02 04:56:13;;;;;;;644.93;270.37;;;;;;;;;;4980736;28;20239;-53
2023/01/02 04:58:40;;;;;;;643.97;267.53;;;;;;;;;;4982457;28;20215;-53
2023/01/02 05:01:10;;;;;;;570.80;230.67;;;;;;;;;;4985265;28;20212;-53
2023/01/02 05:03:39;;;;;;;624.57;262.17;;;;;;;;;;4988054;28;20669;-53
2023/01/02 05:06:06;;;;;;;661.83;272.43;;;;;;;;;;4982874;28;20244;-53
2023/01/02 05:08:32;;;;;;;640.57;260.20;;;;;;;;;;4980070;28;20219;-53
2023/01/02 05:10:58;;;;;;;549.80;254.80;;;;;;;;;;5027155;23;20291;-49
2023/01/02 05:13:24;;;;;;;552.80;253.67;;;;;;;;;;5018328;28;20199;-50
2023/01/02 05:15:55;;;;;;;590.83;265.13;;;;;;;;;;5001721;28;20216;-48
2023/01/02 05:18:21;;;;;;;499.90;226.47;;;;;;;;;;5017621;28;20253;-49
2023/01/02 05:20:47;;;;;;;516.87;239.00;;;;;;;;;;5019162;28;20306;-50
2023/01/02 05:25:58;;;;;;;587.83;271.00;;;;;;;;;;5019122;28;20363;-50
2023/01/02 05:28:25;;;;;;;512.80;236.10;;;;;;;;;;5018341;28;20234;-50
2023/01/02 05:30:51;;;;;;;615.67;275.17;;;;;;;;;;5015867;28;20227;-49
2023/01/02 05:33:17;;;;;;;491.40;224.70;;;;;;;;;;5017804;28;20871;-50
2023/01/02 05:35:43;;;;;;;628.37;277.13;;;;;;;;;;5018738;28;20239;-49
2023/01/02 05:38:10;;;;;;;495.00;227.47;;;;;;;;;;5019721;28;20230;-50
2023/01/02 05:40:36;;;;;;;535.00;241.60;;;;;;;;;;5002779;28;20280;-50
2023/01/02 05:43:03;;;;;;;569.93;263.13;;;;;;;;;;5019531;28;20259;-49
2023/01/02 05:45:30;;;;;;;542.67;247.90;;;;;;;;;;5015124;28;20224;-49
2023/01/02 05:47:56;;;;;;;602.43;270.30;;;;;;;;;;5016803;28;20308;-49
2023/01/02 05:50:23;;;;;;;579.47;254.73;;;;;;;;;;5017077;28;20311;-49
2023/01/02 05:52:49;;;;;;;573.77;269.40;;;12.70;99.90;;;;;;5017694;28;20196;-49
2023/01/02 05:55:15;;;;;;;604.43;278.33;;;12.80;1.00;;;;;;5001310;28;20176;-49
2023/01/02 05:57:42;;;;;;;680.97;307.17;;;;;;;;;;5016475;28;20306;-48
2023/01/02 06:00:08;;;;;;;532.90;235.33;;;;;;;;;;5019785;28;20579;-49
2023/01/02 06:02:34;;;;;;;533.77;247.03;;;;;;;;;;5017375;28;20239;-48
2023/01/02 06:05:01;;;;;;;615.37;282.47;;;;;;;;;;5016790;28;20761;-48
2023/01/02 06:07:27;;;;;;;584.37;277.97;;;;;;;;;;5019799;28;20210;-49
2023/01/02 06:09:53;;;;;;;639.50;292.90;;;;;;;;;;5016839;28;20216;-49
2023/01/02 06:12:19;;;;;;;567.27;261.00;;;;;;;;;;5019136;28;20239;-48
2023/01/02 06:14:45;;;;;;;553.23;254.00;;;;;;;;;;5017690;28;20276;-50
2023/01/02 06:17:11;;;;;;;536.80;242.43;;;;;;;;;;5018783;28;20216;-49
2023/01/02 06:19:38;;;;;;;614.83;284.13;;;;;;;;;;5019807;28;20378;-49
2023/01/02 06:22:05;;;;;;;589.63;282.83;;;;;;;;;;5014222;28;20641;-49
2023/01/02 06:24:32;;;;;;;587.00;278.13;;;13.20;99.90;;;;;;5015638;28;20325;-49
2023/01/02 06:26:59;;;;;;;568.63;264.10;;;;;;;;;;5015633;28;20299;-49
2023/01/02 06:29:25;;;;;;;541.53;253.27;;;;;;;;;;5016926;28;20218;-50
2023/01/02 06:31:51;;;;;;;638.20;289.47;;;;;;;;;;5018159;28;20215;-49
2023/01/02 06:34:18;;;;;;;565.20;264.40;;;13.40;1.00;;;;;;5019072;28;20232;-49
2023/01/02 06:36:44;;;;;;;506.63;226.63;;;;;;;;;;4999162;28;20223;-49
2023/01/02 06:39:10;;;;;;;590.80;266.23;;;;;;;;;;5018743;28;20685;-50
2023/01/02 06:41:36;;;;;;;519.27;240.53;;;;;;;;;;5019646;28;20285;-48
2023/01/02 06:44:02;;;;;;;500.83;234.13;;;;;;;;;;5021087;28;20935;-49
2023/01/02 06:46:29;;;;;;;677.10;302.23;;;;;;;;;;4994239;28;20268;-50
2023/01/02 06:48:55;;;;;;;594.37;279.70;;;;;;;;;;4964281;28;20282;-51
2023/01/02 06:51:22;;;;;;;748.97;362.20;;;13.40;1.00;;;;;;4960721;28;21915;-49
2023/01/02 06:53:48;;;;;;;679.03;321.37;;;13.40;1.00;;;;;;4953887;28;20634;-51
2023/01/02 06:56:19;;;;;;;641.73;305.00;;;13.40;1.00;;;;;;4960495;28;20497;-52
2023/01/02 06:58:45;;;;;;;757.73;362.27;;;;;;;;;;4977044;28;20261;-53
2023/01/02 07:01:17;;;;;;;796.80;375.27;;;15.40;1.00;;;;;;4970799;28;20714;-53
2023/01/02 07:03:44;;;;;;;809.50;378.80;;;;;;;;;;4985658;28;20394;-53
2023/01/02 07:06:12;;;;;;;735.17;334.10;;;13.50;1.00;;;;;;4980566;28;20290;-53
2023/01/02 07:08:39;;;;;;;745.03;324.90;;;;;;;;;;4993518;28;20751;-53
2023/01/02 07:11:10;;;;;;;806.17;366.67;;;13.40;1.00;;;;;;4989430;28;20232;-53
2023/01/02 07:13:36;;;;;;;725.27;327.83;;;;;;;;;;4991572;28;20363;-53
2023/01/02 07:16:04;;;;;;;738.53;334.00;;;13.40;1.00;;;;;;4999612;28;20509;-53
2023/01/02 07:18:31;;;;;;;673.03;302.93;;;13.60;99.90;;;;;;4967963;28;21270;-52
2023/01/02 07:20:57;;;;;;;635.70;299.63;;;;;;;;;;4987279;28;20208;-53
2023/01/02 07:23:27;;;;;;;698.60;320.00;;;;;;;;;;4985496;28;20235;-53
2023/01/02 07:25:58;;;;;;;746.17;348.30;;;13.30;99.90;;;;;;4978172;28;21460;-53
2023/01/02 07:28:24;;;;;;;681.30;319.43;;;;;;;;;;4968589;28;21755;-53
2023/01/02 07:30:55;;;;;;;589.07;268.90;;;11.60;99.90;;;;;;4977484;28;20220;-52
2023/01/02 07:33:23;;;;;;;738.10;335.37;;;13.50;99.90;;;;;;4976178;28;20311;-52
2023/01/02 07:35:50;;;;;;;687.00;304.23;;;;;;;;;;4991535;28;20219;-53
2023/01/02 07:38:22;;;;;;;673.10;306.23;;;13.70;99.90;;;;;;5019115;28;20375;-51
2023/01/02 07:40:48;;;;;;;747.97;337.03;;;;;;;;;;4966964;28;20720;-52
2023/01/02 07:43:14;;;;;;;809.87;372.83;;;;;;;;;;4953885;28;20293;-51
2023/01/02 07:45:41;;;;;;;770.20;353.47;;;;;;;;;;4956426;28;20586;-51
2023/01/02 07:48:07;;;;;;;910.30;412.97;;;;;;;;;;4940757;28;20217;-54
2023/01/02 07:50:38;;;;;;;712.73;320.97;;;13.90;1.00;;;;;;4968396;28;20274;-55
2023/01/02 07:53:05;;;;;;;663.63;313.00;;;;;;;;;;4979778;28;20350;-55
2023/01/02 07:55:31;;;;;;;642.07;297.50;;;;;;;;;;4990065;28;20316;-53
2023/01/02 07:57:58;;;;;;;683.93;316.60;;;;;;;;;;4989961;28;20866;-53
2023/01/02 08:00:24;;;;;;;648.50;299.27;;;13.80;25.70;;;;;;4988680;28;20296;-55
2023/01/02 08:02:52;;;;;;;717.13;342.27;;;14.20;1.00;;;;;;4976018;28;20278;-53
2023/01/02 08:05:18;;;;;;;734.43;336.27;;;;;;;;;;4984552;28;20266;-54
2023/01/02 08:07:47;;;;;;;664.67;306.13;;;13.90;1.00;;;;;;4986780;28;20200;-53
2023/01/02 08:10:13;;;;;;;721.87;340.37;;;;;;;;;;4976291;28;20342;-54
2023/01/02 08:12:40;;;;;;;578.40;267.23;;;;;;;;;;4985059;28;20254;-54
2023/01/02 08:15:06;;;;;;;700.17;322.87;;;12.60;1.00;;;;;;4990173;28;20314;-54
2023/01/02 08:17:33;;;;;;;773.37;368.10;;;;;;;;;;4970016;28;24419;-54
2023/01/02 08:19:59;;;;;;;680.83;304.53;;;;;;;;;;4983515;28;20340;-54
2023/01/02 08:22:28;;;;;;;671.73;302.00;;;14.40;99.90;;;;;;4980413;28;20269;-55
2023/01/02 08:24:54;;;;;;;680.53;314.63;;;;;;;;;;4988393;28;20242;-55
2023/01/02 08:27:20;;;;;;;710.47;331.73;;;;;;;;;;4989281;28;20292;-53
2023/01/02 08:29:46;;;;;;;652.63;293.27;;;13.80;1.00;;;;;;4995629;28;20308;-53
2023/01/02 08:32:12;;;;;;;721.93;333.33;;;;;;;;;;4987401;28;20310;-52
2023/01/02 08:34:38;;;;;;;757.97;349.47;;;;;;;;;;4979228;28;20204;-54
2023/01/02 08:37:04;;;;;;;762.17;347.83;;;;;;;;;;4982031;28;20337;-54
2023/01/02 08:39:30;;;;;;;765.87;351.13;;;;;;;;;;4978562;28;20444;-53
2023/01/02 08:41:57;;;;;;;747.20;336.37;;;;;;;;;;4981394;28;20252;-53
2023/01/02 08:44:23;;;;;;;803.97;373.67;;;;;;;;;;4971195;28;21161;-53
2023/01/02 08:46:50;;;;;;;768.10;357.97;;;14.20;99.90;;;;;;4959351;28;20192;-53
2023/01/02 08:49:16;;;;;;;766.20;365.07;;;14.20;1.00;;;;;;4988427;28;20417;-53
2023/01/02 08:51:43;;;;;;;790.87;363.60;;;;;;;;;;4997645;28;20750;-54
2023/01/02 08:54:08;;;;;;;756.20;339.20;;;14.50;1.00;;;;;;4993145;28;20216;-53
2023/01/02 08:56:36;;;;;;;768.27;357.87;;;;;;;;;;4962383;28;20242;-53
2023/01/02 08:59:04;;;;;;;732.20;340.93;;;14.40;1.00;;;;;;4989627;28;20259;-54
2023/01/02 09:01:32;;;;;;;859.80;410.80;;;14.50;1.00;;;;;;4981584;28;20208;-53
2023/01/02 09:04:06;;;;;;;811.70;380.80;;;14.40;1.00;;;;;;4983872;28;20634;-54
2023/01/02 09:06:34;;;;;;;720.20;334.30;;;14.40;1.00;;;;;;4987064;28;20684;-53
2023/01/02 09:09:00;;;;;;;803.40;374.23;;;;;;;;;;4963923;28;20223;-55
2023/01/02 09:11:35;;;;;;;777.90;362.10;;;14.50;1.00;;;;;;4975490;28;20240;-54
2023/01/02 09:14:03;;;;;;;668.27;316.77;;;14.40;1.00;;;;;;4981274;28;20701;-54
2023/01/02 09:16:29;;;;;;;747.10;349.80;;;;;;;;;;4973770;28;20609;-54
2023/01/02 09:19:00;;;;;;;778.13;371.53;;;14.60;1.00;;;;;;4973682;28;21104;-55
2023/01/02 09:21:26;;;;;;;856.70;412.47;;;;;;;;;;4966039;28;20593;-54
2023/01/02 09:23:52;;;;;;;799.10;381.77;;;;;;;;;;4965729;28;20291;-54
2023/01/02 09:26:18;;;;;;;762.47;368.80;;;14.20;1.00;;;;;;4980530;28;20640;-58
2023/01/02 09:28:45;;;;;;;727.27;337.63;;;;;;;;;;4968800;28;20852;-54
2023/01/02 09:31:13;;;;;;;652.53;305.67;;;14.70;1.00;;;;;;4979002;28;20621;-54
2023/01/02 09:33:42;;;;;;;756.93;352.13;;;12.80;1.00;;;;;;4977291;28;20224;-54
2023/01/02 09:36:10;;;;;;;794.07;375.07;;;13.20;1.00;;;;;;4986713;28;20993;-54
2023/01/02 09:38:37;;;;;;;779.27;372.33;;;14.80;1.00;;;;;;4967233;28;20296;-54
2023/01/02 09:41:31;;;;;;;737.17;349.83;;;14.90;1.00;;;;;;4962231;28;20720;-55
2023/01/02 09:44:18;;;;;;;698.67;349.50;;;14.90;1.00;;;;;;4984102;28;20366;-55
2023/01/02 09:46:59;;;;;;;697.17;334.67;;;13.60;1.00;;;;;;4972091;28;20294;-55
2023/01/02 09:49:32;;;;;;;783.87;374.60;;;14.90;1.00;;;;;;4954249;28;20502;-54
2023/01/02 09:51:59;;;;;;;780.63;379.40;;;15.00;1.00;;;;;;4979949;28;20220;-55
2023/01/02 09:54:32;;;;;;;756.00;346.50;;;15.00;1.00;;;;;;4963750;28;20315;-54
2023/01/02 09:57:28;;;;;;;840.40;390.70;;;14.90;1.00;;;;;;4956648;28;20467;-54
2023/01/02 10:00:11;;;;;;;714.93;344.80;;;15.10;1.00;;;;;;4972043;28;20719;-54
2023/01/02 10:03:19;;;;;;;784.27;368.40;;;15.00;1.00;;;;;;4959124;28;20223;-55
2023/01/02 10:05:46;;;;;;;828.50;397.50;;;;;;;;;;4974747;28;20282;-55
2023/01/02 10:08:44;;;;;;;839.53;397.67;;;15.00;1.00;;;;;;4965025;28;20415;-54
2023/01/02 10:11:37;;;;;;;739.03;346.37;;;15.00;1.00;;;;;;4984555;28;20243;-55
2023/01/02 10:14:50;;;;;;;649.20;310.90;;;14.40;1.00;;;;;;4981985;28;20220;-54
2023/01/02 10:17:16;;;;;;;669.23;319.53;;;15.00;1.00;;;;;;4957673;28;20227;-54
2023/01/02 10:19:53;;;;;;;681.73;319.23;;;15.10;1.00;;;;;;4985729;28;20529;-54
2023/01/02 10:22:28;;;;;;;707.80;343.70;;;14.90;1.00;;;;;;4965052;28;20319;-54
2023/01/02 10:25:17;;;;;;;703.13;329.47;;;15.20;1.00;;;;;;4977307;28;20577;-53
2023/01/02 10:27:55;;;;;;;671.73;327.93;;;15.10;1.00;;;;;;4981432;28;20601;-54
2023/01/02 10:30:23;;;;;;;601.17;282.90;;;;;;;;;;4982447;28;20444;-53
2023/01/02 10:33:03;;;;;;;685.37;327.40;;;15.20;1.00;;;;;;4977679;28;20243;-54
2023/01/02 10:35:44;;;;;;;677.13;336.73;;;15.20;1.00;;;;;;4993568;28;20274;-55
2023/01/02 10:38:15;;;;;;;666.03;319.40;;;;;;;;;;4980368;28;20340;-54
2023/01/02 10:40:44;;;;;;;741.77;362.37;;;15.20;1.00;;;;;;4979199;28;20196;-54
2023/01/02 10:43:11;;;;;;;710.80;343.20;;;;;;;;;;4972742;28;20223;-53
2023/01/02 10:45:37;;;;;;;747.50;369.07;;;;;;;;;;4969870;28;21508;-54
2023/01/02 10:48:04;;;;;;;654.10;319.70;;;;;;;;;;4986575;28;20314;-55
2023/01/02 10:50:37;;;;;;;705.90;345.27;;;15.20;1.00;;;;;;4975502;28;20301;-53
2023/01/02 10:53:18;;;;;;;676.50;328.47;;;15.30;99.90;;;;;;4972618;28;20446;-54
2023/01/02 10:55:44;;;;;;;703.13;342.80;;;;;;;;;;4980515;28;20554;-54
2023/01/02 10:58:26;;;;;;;596.73;291.23;;;15.50;1.00;;;;;;4979866;28;20234;-54
2023/01/02 11:01:04;;;;;;;745.03;349.77;;;15.40;99.90;;;;;;4963255;28;20222;-53
2023/01/02 11:03:30;;;;;;;619.60;295.80;;;;;;;;;;4982804;28;20703;-54
2023/01/02 11:05:57;;;;;;;719.57;342.10;;;15.60;99.90;;;;;;4971477;28;20228;-55
2023/01/02 11:08:34;;;;;;;640.93;315.63;;;15.60;1.00;;;;;;4976352;28;20268;-54
2023/01/02 11:11:00;;;;;;;635.63;313.40;;;;;;;;;;4987501;28;20276;-54
2023/01/02 11:13:42;;;;;;;698.90;301.90;;;15.50;99.90;;;;;;4994130;23;20874;-55
2023/01/02 11:16:09;;;;;;;772.03;341.13;;;;;;;;;;4944284;28;20217;-55
2023/01/02 11:18:36;;;;;;;652.03;279.13;;;15.50;99.90;;;;;;4957436;28;20493;-55
2023/01/02 11:21:04;;;;;;;671.10;294.10;;;15.50;99.90;;;;;;4963532;28;20247;-55
2023/01/02 11:23:38;;;;;;;701.87;317.20;;;15.50;99.90;;;;;;4940559;28;20260;-55
2023/01/02 11:26:09;;;;;;;687.20;309.30;;;16.10;99.90;;;;;;4948715;28;20352;-55
2023/01/02 11:28:39;;;;;;;729.83;318.23;;;15.70;99.90;;;;;;4936029;28;20182;-56
2023/01/02 11:31:10;;;;;;;750.40;327.13;;;18.70;99.90;;;;;;4935990;28;20469;-56
2023/01/02 11:33:37;;;;;;;800.40;351.17;;;15.70;99.90;;;;;;4942259;28;20762;-55
2023/01/02 11:36:03;;;;;;;717.53;305.10;;;;;;;;;;4953721;28;20216;-56
2023/01/02 11:38:45;;;;;;;738.73;329.77;;;15.80;99.90;;;;;;4940619;28;20209;-56
2023/01/02 11:44:37;;;;;;;748.90;316.70;;;15.90;99.90;;;;;;4937486;28;20228;-56
2023/01/02 11:47:05;;;;;;;733.23;319.40;;;16.00;99.90;;;;;;4941358;28;20217;-56
2023/01/02 11:49:42;;;;;;;642.00;282.77;;;15.90;99.90;;;;;;4957432;28;20182;-56
2023/01/02 11:52:36;;;;;;;823.50;357.73;;;15.90;99.90;;;;;;4921855;28;21356;-56
2023/01/02 11:55:10;;;;;;;874.47;376.30;;;15.80;1.00;;;;;;4942558;28;20221;-55
2023/01/02 11:57:59;;;;;;;742.43;303.40;;;16.00;99.90;;;;;;4943312;28;20220;-55
2023/01/02 12:00:30;;;;;;;725.83;325.00;;;15.90;1.00;;;;;;4939357;28;20709;-56
2023/01/02 12:03:05;;;;;;;788.40;341.73;;;17.40;99.90;;;;;;4946089;28;20495;-55
2023/01/02 12:05:45;;;;;;;881.23;382.10;;;16.10;99.90;;;;;;4934756;28;20272;-55
2023/01/02 12:08:20;;;;;;;804.63;342.03;;;16.30;99.90;;;;;;4948977;28;20518;-55
2023/01/02 12:11:01;;;;;;;708.87;309.50;;;16.20;99.90;;;;;;4946689;28;20223;-55
2023/01/02 12:13:32;;;;;;;799.97;340.45;;;16.10;99.90;;;;;;4949492;28;20221;-55
2023/01/02 12:16:39;;;;;;;720.50;321.25;;;16.30;99.90;;;;;;4935915;28;20205;-55
2023/01/02 12:19:26;;;;;;;837.50;364.10;;;14.90;99.90;;;;;;4954756;28;20248;-56
2023/01/02 12:21:53;;;;;;;724.83;323.17;;;;;;;;;;4932063;28;20359;-56
2023/01/02 12:24:19;;;;;;;791.07;351.70;;;;;;;;;;4938714;28;20317;-56
2023/01/02 12:27:14;;;;;;;757.70;332.33;;;16.30;99.90;;;;;;4958178;28;20268;-56
2023/01/02 12:30:01;;;;;;;713.70;298.07;;;16.20;99.90;;;;;;4947742;28;20214;-56
2023/01/02 12:33:04;;;;;;;855.47;370.67;;;16.20;99.90;;;;;;4946258;28;20622;-55
2023/01/02 12:35:30;;;;;;;815.63;348.15;;;;;;;;;;4948525;28;20233;-56
2023/01/02 12:37:57;;;;;;;760.93;335.03;;;16.20;99.90;;;;;;4902815;28;20299;-56
2023/01/02 12:40:45;;;;;;;735.20;310.73;;;16.00;99.90;;;;;;4943191;28;20308;-56
2023/01/02 12:43:29;;;;;;;857.37;383.70;;;16.10;99.90;;;;;;4936224;28;20741;-56
2023/01/02 12:46:20;;;;;;;833.73;367.77;;;16.20;99.90;;;;;;4923610;28;20475;-55
2023/01/02 12:48:55;;;;;;;887.10;392.90;;;16.00;99.90;;;;;;4931195;28;20369;-55
2023/01/02 12:51:55;;;;;;;727.87;311.10;;;16.10;99.90;;;;;;4928506;28;22498;-56
2023/01/02 12:54:47;;;;;;;687.93;287.20;;;16.00;99.90;;;;;;4940237;28;20703;-56
2023/01/02 12:57:46;;;;;;;842.77;368.53;;;16.20;99.90;;;;;;4966466;28;20228;-56
2023/01/02 13:00:12;;;;;;;698.20;296.33;;;;;;;;;;4950556;28;20322;-56
2023/01/02 13:03:04;;;;;;;669.33;295.97;;;14.50;99.90;;;;;;4952599;28;20305;-56
2023/01/02 13:05:42;;;;;;;712.23;309.53;;;16.00;99.90;;;;;;4950348;28;20229;-56
2023/01/02 13:08:16;;;;;;;632.13;283.03;;;16.00;99.90;;;;;;4956465;28;20327;-55
2023/01/02 13:10:43;;;;;;;744.43;326.93;;;;;;;;;;4958994;28;20672;-55
2023/01/02 13:13:12;;;;;;;733.73;323.80;;;15.90;99.90;;;;;;4914960;28;20244;-55
2023/01/02 13:15:42;;;;;;;747.00;330.30;;;16.10;1.00;;;;;;4949997;28;20231;-55
2023/01/02 13:18:43;;;;;;;790.37;353.47;;;15.90;1.00;;;;;;4948826;28;20220;-55
2023/01/02 13:21:23;;;;;;;704.67;298.67;;;15.70;99.90;;;;;;4931382;28;20609;-55
2023/01/02 13:23:50;;;;;;;607.47;278.03;;;15.70;99.90;;;;;;4945269;28;21216;-55
2023/01/02 13:26:23;;;;;;;775.37;334.67;;;15.70;99.90;;;;;;4938685;28;20313;-55
2023/01/02 13:28:58;;;;;;;848.57;357.87;;;15.70;99.90;;;;;;4934592;28;20693;-55
2023/01/02 13:31:27;;;;;;;840.70;366.53;;;;;;;;;;4927123;28;20201;-55
2023/01/02 13:33:53;;;;;;;758.83;321.10;;;14.10;99.90;;;;;;4949828;28;20663;-56
2023/01/02 13:36:37;;;;;;;831.33;353.13;;;15.60;99.90;;;;;;4936030;28;20312;-55
2023/01/02 13:39:13;;;;;;;716.27;300.03;;;15.60;99.90;;;;;;4958088;28;21437;-55
2023/01/02 13:44:49;;;;;;;776.33;324.10;;;15.50;99.90;;;;;;4950232;28;20232;-56